Time;durP1;ratioP1;P1;durP2;ratioP2;P2;SDS_P1;SDS_P2;PMS_P1;PMS_P2;Temp;Humidity;BMP_temperature;BMP_pressure;BME280_temperature;BME280_humidity;BME280_pressure;Samples;Min_cycle;Max_cycle;Signal;HPM_P1;HPM_P2
2021/06/20 05:17:26;;;;;;;0.10;0.10;;;25.80;97.60;;;;;;4989172;23;20628;-78
2021/06/20 05:19:54;;;;;;;0.10;0.10;;;25.80;97.70;;;;;;4917617;29;20236;-78
2021/06/20 05:22:22;;;;;;;0.10;0.10;;;26.00;98.00;;;;;;4917160;29;20211;-78
2021/06/20 05:24:50;;;;;;;0.10;0.10;;;26.10;97.40;;;;;;4916568;29;20597;-77
2021/06/20 05:27:18;;;;;;;0.10;0.10;;;26.10;97.30;;;;;;4918553;29;20274;-79
2021/06/20 05:29:46;;;;;;;0.10;0.10;;;26.20;97.60;;;;;;4919170;29;20198;-79
2021/06/20 05:32:14;;;;;;;0.10;0.10;;;26.20;96.90;;;;;;4916228;29;20214;-78
2021/06/20 05:34:43;;;;;;;0.10;0.10;;;26.40;97.00;;;;;;4920160;29;20202;-79
2021/06/20 05:37:11;;;;;;;0.10;0.10;;;26.50;96.60;;;;;;4916741;29;20283;-78
2021/06/20 05:39:39;;;;;;;0.10;0.10;;;26.50;96.30;;;;;;4918455;29;20218;-78
2021/06/20 05:42:08;;;;;;;0.10;0.10;;;26.50;96.60;;;;;;4917816;29;20207;-77
2021/06/20 05:44:39;;;;;;;0.10;0.10;;;26.50;96.00;;;;;;4918504;29;20191;-78
2021/06/20 05:47:07;;;;;;;0.10;0.10;;;26.50;96.00;;;;;;4918291;29;20226;-79
2021/06/20 05:49:34;;;;;;;0.10;0.10;;;26.60;96.40;;;;;;4920302;29;20198;-79
2021/06/20 05:52:04;;;;;;;0.10;0.10;;;26.60;95.70;;;;;;4922699;29;20203;-79
2021/06/20 05:54:32;;;;;;;0.10;0.10;;;26.80;96.30;;;;;;4923340;29;20205;-79
2021/06/20 05:57:00;;;;;;;0.10;0.10;;;26.80;96.10;;;;;;4923833;29;20254;-78
2021/06/20 05:59:28;;;;;;;0.10;0.10;;;26.90;95.80;;;;;;4921302;29;20241;-77
2021/06/20 06:01:56;;;;;;;0.10;0.10;;;27.00;95.90;;;;;;4923788;29;20211;-78
2021/06/20 06:04:25;;;;;;;0.10;0.10;;;27.10;96.20;;;;;;4923171;29;20672;-78
2021/06/20 06:06:52;;;;;;;0.10;0.10;;;27.10;96.60;;;;;;4921932;29;20234;-77
2021/06/20 06:09:22;;;;;;;0.10;0.10;;;27.20;95.90;;;;;;4924148;29;20231;-78
2021/06/20 06:11:50;;;;;;;0.10;0.10;;;27.30;95.30;;;;;;4929227;29;20207;-77
2021/06/20 06:14:18;;;;;;;0.10;0.10;;;27.20;94.70;;;;;;4932056;29;20203;-78
2021/06/20 06:16:46;;;;;;;0.10;0.10;;;27.20;94.70;;;;;;4930957;29;20234;-77
2021/06/20 06:19:16;;;;;;;0.10;0.10;;;27.20;94.40;;;;;;4924381;29;20236;-79
2021/06/20 06:21:44;;;;;;;0.10;0.10;;;27.20;94.70;;;;;;4922473;29;20273;-79
2021/06/20 06:24:12;;;;;;;0.10;0.10;;;27.30;94.60;;;;;;4923507;29;20254;-79
2021/06/20 06:26:41;;;;;;;0.10;0.10;;;27.30;94.60;;;;;;4922506;29;20239;-78
2021/06/20 06:29:09;;;;;;;0.10;0.10;;;27.20;94.50;;;;;;4922663;29;20740;-78
2021/06/20 06:31:41;;;;;;;0.10;0.10;;;27.20;94.70;;;;;;4921758;29;20237;-78
2021/06/20 06:34:10;;;;;;;0.10;0.10;;;27.20;95.00;;;;;;4921877;29;20249;-74
2021/06/20 06:36:38;;;;;;;0.10;0.10;;;27.50;95.00;;;;;;4914292;29;20599;-76
2021/06/20 06:39:06;;;;;;;0.10;0.10;;;27.60;94.90;;;;;;4918105;29;20279;-76
2021/06/20 06:41:35;;;;;;;0.10;0.10;;;;;;;;;;4920442;29;20695;-78
2021/06/20 06:44:04;;;;;;;0.10;0.10;;;27.80;94.10;;;;;;4919120;29;20569;-76
2021/06/20 06:46:32;;;;;;;0.10;0.10;;;28.00;94.00;;;;;;4918203;29;20238;-74
2021/06/20 06:49:00;;;;;;;0.10;0.10;;;28.00;93.90;;;;;;4918197;29;20203;-73
2021/06/20 06:51:28;;;;;;;0.10;0.10;;;28.10;94.10;;;;;;4918260;29;20206;-74
2021/06/20 06:53:56;;;;;;;0.10;0.10;;;28.20;94.10;;;;;;4918626;29;20211;-75
2021/06/20 06:56:24;;;;;;;0.10;0.10;;;28.40;93.90;;;;;;4917867;29;20264;-74
2021/06/20 06:58:51;;;;;;;0.10;0.10;;;28.30;93.90;;;;;;4918716;29;20203;-76
2021/06/20 07:01:21;;;;;;;0.10;0.10;;;28.30;93.30;;;;;;4916607;29;20226;-74
2021/06/20 07:03:49;;;;;;;0.10;0.10;;;28.70;93.50;;;;;;4918384;29;20214;-73
2021/06/20 07:06:16;;;;;;;0.10;0.10;;;29.00;92.60;;;;;;4917805;29;20230;-76
2021/06/20 07:08:44;;;;;;;0.10;0.10;;;29.20;92.60;;;;;;4918059;29;20266;-74
2021/06/20 07:11:12;;;;;;;0.10;0.10;;;29.30;91.80;;;;;;4918131;29;20628;-75
2021/06/20 07:13:40;;;;;;;0.10;0.10;;;29.40;91.40;;;;;;4899131;29;20809;-75
2021/06/20 07:16:08;;;;;;;0.10;0.10;;;29.50;99.90;;;;;;4898734;29;20235;-75
2021/06/20 07:18:37;;;;;;;0.10;0.10;;;29.40;95.00;;;;;;4899110;29;20735;-76
2021/06/20 07:21:06;;;;;;;0.10;0.10;;;29.50;94.50;;;;;;4917750;29;20243;-76
2021/06/20 07:23:34;;;;;;;0.00;0.00;;;29.70;94.00;;;;;;4918237;29;20203;-74
2021/06/20 07:26:03;;;;;;;0.00;0.00;;;29.70;91.00;;;;;;4918080;29;20273;-77
2021/06/20 07:28:31;;;;;;;0.10;0.10;;;29.70;91.10;;;;;;4918525;29;20261;-75
2021/06/20 07:30:58;;;;;;;0.10;0.10;;;29.80;90.60;;;;;;4917907;29;20269;-74
2021/06/20 07:33:26;;;;;;;0.10;0.10;;;29.70;90.50;;;;;;4917720;29;20266;-74
2021/06/20 07:35:57;;;;;;;0.10;0.10;;;29.80;91.10;;;;;;4917541;29;20746;-75
2021/06/20 07:38:25;;;;;;;0.10;0.10;;;29.80;91.90;;;;;;4917610;29;20233;-75
2021/06/20 07:40:53;;;;;;;0.10;0.10;;;30.00;91.60;;;;;;4919214;29;20282;-80
2021/06/20 07:43:26;;;;;;;0.10;0.10;;;30.20;91.00;;;;;;4925074;29;20194;-79
2021/06/20 07:45:55;;;;;;;0.00;0.00;;;30.40;90.10;;;;;;4926346;29;20286;-78
2021/06/20 07:48:24;;;;;;;0.10;0.10;;;30.40;90.60;;;;;;4925440;29;20297;-83
2021/06/20 07:50:52;;;;;;;0.10;0.10;;;30.50;89.80;;;;;;4925710;29;20195;-79
2021/06/20 07:53:21;;;;;;;0.00;0.00;;;30.60;90.40;;;;;;4926079;29;20199;-79
2021/06/20 07:55:49;;;;;;;0.00;0.00;;;30.60;90.10;;;;;;4923414;29;20231;-79
2021/06/20 07:58:17;;;;;;;0.00;0.00;;;30.70;88.40;;;;;;4922814;29;20264;-78
2021/06/20 08:00:45;;;;;;;0.00;0.00;;;30.60;88.20;;;;;;4925962;29;20215;-79
2021/06/20 08:03:13;;;;;;;0.10;0.10;;;30.70;89.00;;;;;;4919938;29;20265;-83
2021/06/20 08:05:41;;;;;;;0.10;0.10;;;30.80;90.40;;;;;;4921259;29;20246;-80
2021/06/20 08:08:09;;;;;;;0.10;0.10;;;30.70;88.10;;;;;;4920798;29;20234;-79
2021/06/20 08:10:38;;;;;;;0.00;0.00;;;30.70;87.80;;;;;;4920513;29;20233;-78
2021/06/20 08:13:06;;;;;;;0.00;0.00;;;30.80;87.80;;;;;;4920529;29;20210;-77
2021/06/20 08:15:34;;;;;;;0.10;0.10;;;30.90;86.90;;;;;;4921222;29;20241;-80
2021/06/20 08:18:02;;;;;;;0.00;0.00;;;31.00;87.00;;;;;;4920394;29;20223;-81
2021/06/20 08:20:29;;;;;;;0.10;0.10;;;31.20;87.80;;;;;;4921001;29;20223;-79
2021/06/20 08:22:57;;;;;;;0.00;0.00;;;31.30;87.40;;;;;;4899243;29;20238;-72
2021/06/20 08:25:25;;;;;;;0.10;0.10;;;31.70;98.00;;;;;;4916113;29;20731;-73
2021/06/20 08:27:54;;;;;;;0.00;0.00;;;31.80;88.10;;;;;;4916974;29;20234;-74
2021/06/20 08:30:23;;;;;;;0.05;0.05;;;31.70;86.50;;;;;;4917077;29;20253;-70
2021/06/20 08:32:51;;;;;;;0.10;0.10;;;31.50;88.00;;;;;;4916863;29;20207;-73
2021/06/20 08:35:19;;;;;;;0.00;0.00;;;31.70;98.80;;;;;;4921548;29;20602;-73
2021/06/20 08:37:50;;;;;;;0.00;0.00;;;;;;;;;;4928800;29;20668;-72
2021/06/20 08:40:18;;;;;;;0.00;0.00;;;;;;;;;;4936102;29;20264;-78
2021/06/20 08:42:47;;;;;;;0.00;0.00;;;31.90;84.80;;;;;;4936309;29;20209;-77
2021/06/20 08:45:17;;;;;;;0.00;0.00;;;32.20;95.70;;;;;;4935481;29;20580;-76
2021/06/20 08:47:45;;;;;;;0.00;0.00;;;32.20;83.20;;;;;;4935247;29;20695;-77
2021/06/20 08:50:14;;;;;;;0.00;0.00;;;32.20;83.90;;;;;;4934273;29;20216;-77
2021/06/20 08:52:42;;;;;;;0.00;0.00;;;;;;;;;;4933495;29;20206;-76
2021/06/20 08:55:12;;;;;;;0.00;0.00;;;32.60;83.80;;;;;;4934642;29;20269;-78
2021/06/20 08:57:42;;;;;;;0.08;0.08;;;32.70;84.80;;;;;;4935744;29;20662;-78
2021/06/20 09:00:12;;;;;;;0.00;0.00;;;32.70;81.30;;;;;;4934395;29;20257;-78
2021/06/20 09:02:42;;;;;;;0.00;0.00;;;32.80;81.20;;;;;;4935433;29;20201;-78
2021/06/20 09:05:14;;;;;;;0.00;0.00;;;32.80;81.30;;;;;;4936036;29;20269;-77
2021/06/20 09:07:44;;;;;;;0.00;0.00;;;33.00;81.30;;;;;;4936013;29;20229;-78
2021/06/20 09:10:18;;;;;;;0.00;0.00;;;33.10;81.60;;;;;;4936023;29;20672;-77
2021/06/20 09:12:51;;;;;;;0.00;0.00;;;33.30;84.90;;;;;;4936167;29;20217;-77
2021/06/20 09:15:21;;;;;;;0.00;0.00;;;33.70;92.90;;;;;;4935620;29;20209;-78
2021/06/20 09:17:54;;;;;;;0.00;0.00;;;33.50;81.90;;;;;;4936492;29;20224;-78
2021/06/20 09:20:33;;;;;;;0.00;0.00;;;33.60;80.00;;;;;;4935946;29;20240;-78
2021/06/20 09:23:03;;;;;;;0.00;0.00;;;33.80;79.40;;;;;;4935600;29;20232;-78
2021/06/20 09:25:31;;;;;;;0.00;0.00;;;33.60;72.50;;;;;;4935475;29;20225;-77
2021/06/20 09:28:00;;;;;;;0.00;0.00;;;33.70;77.50;;;;;;4935698;29;20205;-78
2021/06/20 09:30:30;;;;;;;0.00;0.00;;;33.70;72.60;;;;;;4935828;29;20201;-77
2021/06/20 09:33:01;;;;;;;0.00;0.00;;;33.80;74.80;;;;;;4935564;29;20209;-78
2021/06/20 09:35:40;;;;;;;0.00;0.00;;;33.80;85.40;;;;;;4935926;29;20205;-78
2021/06/20 09:38:09;;;;;;;0.00;0.00;;;33.80;70.90;;;;;;4935842;29;20205;-78
2021/06/20 09:40:38;;;;;;;0.00;0.00;;;33.80;68.60;;;;;;4935822;29;20205;-78
2021/06/20 09:43:14;;;;;;;0.00;0.00;;;33.70;66.50;;;;;;4935508;29;20212;-78
2021/06/20 09:45:44;;;;;;;0.00;0.00;;;33.70;68.90;;;;;;4935444;29;20752;-78
2021/06/20 09:48:24;;;;;;;0.00;0.00;;;33.60;65.60;;;;;;4935901;29;20221;-78
2021/06/20 09:50:53;;;;;;;0.00;0.00;;;33.70;68.50;;;;;;4936380;29;20205;-78
2021/06/20 09:53:34;;;;;;;0.00;0.00;;;33.90;67.50;;;;;;4935818;29;20655;-78
2021/06/20 09:56:14;;;;;;;0.00;0.00;;;33.90;66.70;;;;;;4935781;29;20244;-78
2021/06/20 09:58:45;;;;;;;0.00;0.00;;;33.90;68.80;;;;;;4935409;29;20679;-78
2021/06/20 10:01:15;;;;;;;0.00;0.00;;;33.80;64.20;;;;;;4936148;29;20213;-78
2021/06/20 10:03:46;;;;;;;0.00;0.00;;;33.70;64.20;;;;;;4935723;29;20209;-78
2021/06/20 10:06:15;;;;;;;0.00;0.00;;;33.80;65.10;;;;;;4935493;29;20225;-77
2021/06/20 10:08:44;;;;;;;0.00;0.00;;;33.90;62.90;;;;;;4935809;29;20613;-78
2021/06/20 10:11:12;;;;;;;0.00;0.00;;;33.90;65.40;;;;;;4935603;29;20253;-77
2021/06/20 10:13:41;;;;;;;0.00;0.00;;;33.80;63.60;;;;;;4935222;29;20698;-78
2021/06/20 10:16:16;;;;;;;0.00;0.00;;;33.70;64.30;;;;;;4935122;29;20237;-78
2021/06/20 10:18:52;;;;;;;0.00;0.00;;;33.90;65.10;;;;;;4935657;29;20243;-78
2021/06/20 10:21:31;;;;;;;0.00;0.00;;;33.90;64.20;;;;;;4935466;29;20228;-78
2021/06/20 10:24:14;;;;;;;0.00;0.00;;;34.00;65.10;;;;;;4935202;29;20610;-77
2021/06/20 10:26:56;;;;;;;0.05;0.05;;;33.80;63.20;;;;;;4935147;29;20225;-77
2021/06/20 10:29:25;;;;;;;0.00;0.00;;;33.90;64.50;;;;;;4935527;29;20206;-78
2021/06/20 10:31:54;;;;;;;0.00;0.00;;;33.50;62.40;;;;;;4935646;29;20734;-78
2021/06/20 10:34:25;;;;;;;0.00;0.00;;;33.50;63.00;;;;;;4935235;29;20264;-78
2021/06/20 10:36:55;;;;;;;0.00;0.00;;;33.40;62.50;;;;;;4937023;29;20304;-78
2021/06/20 10:39:25;;;;;;;0.00;0.00;;;33.40;60.30;;;;;;4938412;29;20229;-78
2021/06/20 10:42:07;;;;;;;0.00;0.00;;;33.40;61.90;;;;;;4938035;29;20691;-78
2021/06/20 10:44:52;;;;;;;0.00;0.00;;;33.40;63.60;;;;;;4938333;29;20559;-77
2021/06/20 10:47:30;;;;;;;0.00;0.00;;;33.40;63.40;;;;;;4936534;28;20268;-78
2021/06/20 10:50:01;;;;;;;0.00;0.00;;;33.60;62.10;;;;;;4938412;29;20213;-78
2021/06/20 10:52:29;;;;;;;0.00;0.00;;;33.60;63.00;;;;;;4939282;29;20575;-78
2021/06/20 10:55:12;;;;;;;0.00;0.00;;;33.90;61.50;;;;;;4950365;29;20241;-77
2021/06/20 10:57:49;;;;;;;0.00;0.00;;;34.00;61.80;;;;;;4951025;29;20205;-77
2021/06/20 11:00:29;;;;;;;0.00;0.00;;;34.00;61.00;;;;;;4948410;29;20210;-77
2021/06/20 11:03:08;;;;;;;0.00;0.00;;;34.00;60.90;;;;;;4937669;29;20225;-77
2021/06/20 11:05:47;;;;;;;0.00;0.00;;;33.80;61.40;;;;;;4937225;29;20261;-77
2021/06/20 11:08:26;;;;;;;0.00;0.00;;;34.00;61.80;;;;;;4937318;29;20942;-77
2021/06/20 11:11:05;;;;;;;0.00;0.00;;;34.00;59.50;;;;;;4937288;29;20585;-77
2021/06/20 11:13:32;;;;;;;0.00;0.00;;;34.20;62.50;;;;;;4937141;29;20683;-76
2021/06/20 11:16:02;;;;;;;0.00;0.00;;;34.00;65.30;;;;;;4936866;29;20238;-77
2021/06/20 11:18:30;;;;;;;0.00;0.00;;;33.80;66.00;;;;;;4937025;29;20284;-76
2021/06/20 11:20:59;;;;;;;0.00;0.00;;;33.60;67.50;;;;;;4937171;29;20347;-76
2021/06/20 11:23:30;;;;;;;0.00;0.00;;;33.60;68.10;;;;;;4936980;29;20229;-77
2021/06/20 11:25:59;;;;;;;0.00;0.00;;;33.70;67.60;;;;;;4936600;29;20266;-76
2021/06/20 11:28:27;;;;;;;0.00;0.00;;;33.80;68.40;;;;;;4936895;29;20214;-77
2021/06/20 11:31:10;;;;;;;0.00;0.00;;;33.70;67.50;;;;;;4937130;29;20237;-76
2021/06/20 11:33:39;;;;;;;0.00;0.00;;;;;;;;;;4937061;29;20201;-77
2021/06/20 11:36:08;;;;;;;0.00;0.00;;;34.00;67.30;;;;;;4936519;29;20225;-76
2021/06/20 11:38:39;;;;;;;0.00;0.00;;;33.90;67.80;;;;;;4936815;29;20237;-77
2021/06/20 11:41:13;;;;;;;0.00;0.00;;;33.90;67.30;;;;;;4936562;29;20201;-77
2021/06/20 11:43:55;;;;;;;0.00;0.00;;;33.80;65.60;;;;;;4936814;29;20229;-77
2021/06/20 11:46:26;;;;;;;0.00;0.00;;;33.70;67.60;;;;;;4936220;29;20225;-77
2021/06/20 11:48:57;;;;;;;0.00;0.00;;;33.70;67.20;;;;;;4936709;29;20225;-76
2021/06/20 11:51:34;;;;;;;0.00;0.00;;;33.60;67.10;;;;;;4936553;29;20663;-77
2021/06/20 11:54:14;;;;;;;0.00;0.00;;;33.60;67.80;;;;;;4936645;29;20210;-77
2021/06/20 11:56:44;;;;;;;0.00;0.00;;;33.80;67.10;;;;;;4936336;29;20229;-77
2021/06/20 11:59:13;;;;;;;0.00;0.00;;;33.90;64.50;;;;;;4936233;29;20209;-77
2021/06/20 12:01:47;;;;;;;0.00;0.00;;;34.00;65.40;;;;;;4936188;29;20201;-77
2021/06/20 12:04:20;;;;;;;0.00;0.00;;;34.00;63.40;;;;;;4936193;29;20292;-77
2021/06/20 12:06:49;;;;;;;0.00;0.00;;;33.90;62.80;;;;;;4935907;29;20280;-76
2021/06/20 12:09:18;;;;;;;0.00;0.00;;;33.90;63.40;;;;;;4936226;29;20205;-77
2021/06/20 12:11:46;;;;;;;0.00;0.00;;;33.90;63.70;;;;;;4936101;29;20714;-77
2021/06/20 12:14:22;;;;;;;0.00;0.00;;;33.90;66.70;;;;;;4936064;29;20205;-77
2021/06/20 12:16:51;;;;;;;0.00;0.00;;;33.80;66.70;;;;;;4935522;29;20292;-77
2021/06/20 12:19:22;;;;;;;0.00;0.00;;;33.60;65.50;;;;;;4935867;29;20210;-76
2021/06/20 12:22:05;;;;;;;0.00;0.00;;;33.60;66.30;;;;;;4935961;29;20213;-77
2021/06/20 12:24:38;;;;;;;0.00;0.00;;;33.60;64.60;;;;;;4936644;29;20190;-79
2021/06/20 12:27:07;;;;;;;0.00;0.00;;;33.50;64.70;;;;;;4923920;29;20218;-76
2021/06/20 12:29:36;;;;;;;0.00;0.00;;;33.30;70.60;;;;;;4922981;29;20230;-76
2021/06/20 12:32:06;;;;;;;0.00;0.00;;;32.90;67.40;;;;;;4933171;29;20210;-77
2021/06/20 12:34:46;;;;;;;0.00;0.00;;;32.80;70.50;;;;;;4932832;29;20230;-75
2021/06/20 12:37:16;;;;;;;0.00;0.00;;;32.60;70.50;;;;;;4925353;29;20222;-76
2021/06/20 12:39:50;;;;;;;0.00;0.00;;;33.20;67.70;;;;;;4922293;29;20232;-77
2021/06/20 12:42:19;;;;;;;0.00;0.00;;;33.20;68.40;;;;;;4925346;29;20842;-75
2021/06/20 12:44:51;;;;;;;0.00;0.00;;;33.80;63.50;;;;;;4918342;29;20206;-73
2021/06/20 12:47:30;;;;;;;0.00;0.00;;;34.30;63.90;;;;;;4918866;29;20269;-73
2021/06/20 12:49:58;;;;;;;0.00;0.00;;;34.20;65.60;;;;;;4917814;29;20206;-74
2021/06/20 12:52:30;;;;;;;0.00;0.00;;;34.10;66.20;;;;;;4918211;29;20210;-74
2021/06/20 12:54:58;;;;;;;0.00;0.00;;;34.00;66.00;;;;;;4916184;29;20210;-73
2021/06/20 12:57:29;;;;;;;0.00;0.00;;;33.90;67.30;;;;;;4921723;29;20270;-75
2021/06/20 13:00:07;;;;;;;0.00;0.00;;;33.40;67.20;;;;;;4927602;29;20202;-75
2021/06/20 13:02:35;;;;;;;0.00;0.00;;;33.40;66.70;;;;;;4919764;29;20218;-75
2021/06/20 13:05:04;;;;;;;0.00;0.00;;;33.30;68.00;;;;;;4920280;29;20214;-76
2021/06/20 13:07:37;;;;;;;0.00;0.00;;;32.90;70.50;;;;;;4920640;29;20250;-78
2021/06/20 13:10:08;;;;;;;0.00;0.00;;;32.60;71.70;;;;;;4922377;29;20660;-77
2021/06/20 13:12:36;;;;;;;0.00;0.00;;;32.60;74.20;;;;;;4929830;29;20651;-75
2021/06/20 13:15:09;;;;;;;0.00;0.00;;;32.50;73.00;;;;;;4938252;29;20318;-76
2021/06/20 13:17:38;;;;;;;0.00;0.00;;;32.60;74.60;;;;;;4935785;29;20260;-76
2021/06/20 13:20:07;;;;;;;0.00;0.00;;;32.60;74.40;;;;;;4929213;29;20209;-75
2021/06/20 13:22:39;;;;;;;0.00;0.00;;;32.40;75.60;;;;;;4927370;29;20198;-76
2021/06/20 13:25:08;;;;;;;0.03;0.03;;;32.40;74.80;;;;;;4937326;29;20679;-79
2021/06/20 13:27:36;;;;;;;0.00;0.00;;;32.40;75.70;;;;;;4936501;29;20225;-72
2021/06/20 13:30:07;;;;;;;0.00;0.00;;;32.30;77.20;;;;;;4939931;29;20202;-77
2021/06/20 13:32:35;;;;;;;0.00;0.00;;;32.90;75.50;;;;;;4922660;29;20233;-77
2021/06/20 13:35:03;;;;;;;0.00;0.00;;;33.70;73.50;;;;;;4928119;29;20260;-76
2021/06/20 13:37:31;;;;;;;0.00;0.00;;;34.60;71.20;;;;;;4919961;29;20230;-76
2021/06/20 13:40:01;;;;;;;0.00;0.00;;;35.10;69.40;;;;;;4930750;29;20206;-76
2021/06/20 13:42:29;;;;;;;0.00;0.00;;;35.90;67.30;;;;;;4915192;29;20210;-76
2021/06/20 13:44:57;;;;;;;0.00;0.00;;;36.40;66.40;;;;;;4914947;29;20218;-76
2021/06/20 13:47:24;;;;;;;0.00;0.00;;;36.60;64.90;;;;;;4918264;29;20265;-76
2021/06/20 13:49:52;;;;;;;0.00;0.00;;;37.00;64.00;;;;;;4916553;29;20206;-76
2021/06/20 13:52:21;;;;;;;0.00;0.00;;;37.20;64.50;;;;;;4926497;29;20206;-76
2021/06/20 13:54:52;;;;;;;0.00;0.00;;;37.20;63.00;;;;;;4931457;29;20227;-76
2021/06/20 13:57:22;;;;;;;0.00;0.00;;;37.10;62.00;;;;;;4922755;29;20286;-76
2021/06/20 13:59:51;;;;;;;0.00;0.00;;;37.10;60.90;;;;;;4915772;29;20235;-77
2021/06/20 14:02:20;;;;;;;0.00;0.00;;;36.80;62.70;;;;;;4925177;29;20205;-76
2021/06/20 14:04:49;;;;;;;0.00;0.00;;;;;;;;;;4925841;29;20342;-76
2021/06/20 14:07:17;;;;;;;0.00;0.00;;;36.00;63.60;;;;;;4930548;29;20296;-75
2021/06/20 14:09:53;;;;;;;0.00;0.00;;;35.70;66.00;;;;;;4935241;29;20205;-76
2021/06/20 14:12:23;;;;;;;0.00;0.00;;;35.10;64.80;;;;;;4938044;29;20698;-76
2021/06/20 14:14:52;;;;;;;0.00;0.00;;;34.70;67.00;;;;;;4938354;29;20634;-78
2021/06/20 14:17:20;;;;;;;0.00;0.00;;;34.40;68.50;;;;;;4933700;29;20233;-76
2021/06/20 14:19:49;;;;;;;0.00;0.00;;;;;;;;;;4929195;29;20197;-77
2021/06/20 14:22:17;;;;;;;0.00;0.00;;;;;;;;;;4926862;29;20723;-76
2021/06/20 14:24:45;;;;;;;0.00;0.00;;;33.30;71.00;;;;;;4919870;29;20645;-76
2021/06/20 14:27:13;;;;;;;0.00;0.00;;;33.10;72.00;;;;;;4926466;29;20269;-76
2021/06/20 14:29:42;;;;;;;0.00;0.00;;;32.90;72.50;;;;;;4928975;29;20621;-75
2021/06/20 14:32:10;;;;;;;0.00;0.00;;;32.70;73.00;;;;;;4927824;29;20246;-76
2021/06/20 14:34:49;;;;;;;0.00;0.00;;;32.50;73.30;;;;;;4925938;29;20248;-76
2021/06/20 14:37:18;;;;;;;0.00;0.00;;;32.20;75.10;;;;;;4926710;29;20695;-77
2021/06/20 14:39:46;;;;;;;0.00;0.00;;;32.10;75.60;;;;;;4924989;29;20290;-76
2021/06/20 14:42:14;;;;;;;0.00;0.00;;;32.00;76.20;;;;;;4919830;29;20277;-77
2021/06/20 14:44:44;;;;;;;0.00;0.00;;;31.90;75.60;;;;;;4923374;29;20480;-76
2021/06/20 14:47:12;;;;;;;0.00;0.00;;;31.80;75.20;;;;;;4920806;29;20226;-76
2021/06/20 14:49:40;;;;;;;0.00;0.00;;;31.80;75.30;;;;;;4931891;29;20257;-76
2021/06/20 14:52:08;;;;;;;0.00;0.00;;;31.70;75.20;;;;;;4937399;29;20210;-76
2021/06/20 14:54:37;;;;;;;0.00;0.00;;;31.70;74.00;;;;;;4937184;29;20249;-76
2021/06/20 14:57:06;;;;;;;0.00;0.00;;;31.50;75.70;;;;;;4934178;29;20246;-78
2021/06/20 14:59:34;;;;;;;0.00;0.00;;;31.40;75.10;;;;;;4919664;29;20262;-79
2021/06/20 15:02:03;;;;;;;0.00;0.00;;;31.50;75.80;;;;;;4917922;29;20207;-78
2021/06/20 15:04:31;;;;;;;0.00;0.00;;;31.50;75.40;;;;;;4917302;29;20269;-76
2021/06/20 15:06:59;;;;;;;0.00;0.00;;;31.70;75.20;;;;;;4917976;29;20230;-78
2021/06/20 15:09:27;;;;;;;0.00;0.00;;;31.60;75.40;;;;;;4917820;29;20249;-81
2021/06/20 15:11:55;;;;;;;0.00;0.00;;;31.70;75.50;;;;;;4919554;29;20230;-76
2021/06/20 15:14:23;;;;;;;0.00;0.00;;;31.60;76.10;;;;;;4917550;29;20232;-77
2021/06/20 15:16:51;;;;;;;0.08;0.08;;;31.50;76.30;;;;;;4917631;29;20231;-77
2021/06/20 15:19:20;;;;;;;0.00;0.00;;;31.50;76.90;;;;;;4918651;29;20234;-77
2021/06/20 15:21:48;;;;;;;0.00;0.00;;;31.40;76.60;;;;;;4917626;29;20262;-77
2021/06/20 15:24:17;;;;;;;0.00;0.00;;;31.40;77.20;;;;;;4917779;29;20234;-77
2021/06/20 15:26:46;;;;;;;0.00;0.00;;;31.30;76.30;;;;;;4917782;29;20783;-76
2021/06/20 15:29:15;;;;;;;0.10;0.10;;;31.30;77.50;;;;;;4918583;29;20206;-77
2021/06/20 15:32:15;;;;;;;0.00;0.00;;;31.20;77.40;;;;;;4919142;29;20213;-77
2021/06/20 15:35:05;;;;;;;0.00;0.00;;;31.20;77.60;;;;;;4917985;29;20241;-77
2021/06/20 15:37:33;;;;;;;0.00;0.00;;;31.20;78.30;;;;;;4917687;29;20226;-77
2021/06/20 15:40:01;;;;;;;0.00;0.00;;;31.20;78.50;;;;;;4917625;29;20246;-77
2021/06/20 15:42:29;;;;;;;0.00;0.00;;;31.20;77.50;;;;;;4919792;29;20227;-77
2021/06/20 15:44:56;;;;;;;0.00;0.00;;;31.20;77.70;;;;;;4918267;29;20222;-77
2021/06/20 15:47:24;;;;;;;0.10;0.10;;;31.10;76.50;;;;;;4917726;29;20230;-76
2021/06/20 15:49:52;;;;;;;0.10;0.10;;;31.00;76.40;;;;;;4917736;29;20207;-76
2021/06/20 15:52:21;;;;;;;0.00;0.00;;;30.80;80.60;;;;;;4917415;29;20681;-79
2021/06/20 15:54:55;;;;;;;0.00;0.00;;;30.70;77.10;;;;;;4917849;29;20206;-75
2021/06/20 15:57:23;;;;;;;0.00;0.00;;;30.80;78.60;;;;;;4917606;29;20241;-73
2021/06/20 15:59:54;;;;;;;0.10;0.10;;;30.80;76.40;;;;;;4917677;29;20586;-76
2021/06/20 16:02:23;;;;;;;0.10;0.10;;;30.80;77.40;;;;;;4918193;29;20263;-76
2021/06/20 16:04:51;;;;;;;0.00;0.00;;;30.80;74.10;;;;;;4917905;29;20231;-77
2021/06/20 16:07:19;;;;;;;0.05;0.05;;;30.70;74.80;;;;;;4917787;29;20222;-76
2021/06/20 16:09:49;;;;;;;0.10;0.10;;;30.80;75.00;;;;;;4919489;29;20544;-79
2021/06/20 16:12:17;;;;;;;0.10;0.10;;;30.90;74.50;;;;;;4919343;29;20257;-76
2021/06/20 16:14:45;;;;;;;0.00;0.00;;;30.90;72.90;;;;;;4919285;29;20231;-78
2021/06/20 16:17:13;;;;;;;0.00;0.00;;;30.90;72.70;;;;;;4918732;29;20282;-79
2021/06/20 16:19:41;;;;;;;0.00;0.00;;;31.10;73.00;;;;;;4919277;29;20207;-77
2021/06/20 16:22:09;;;;;;;0.00;0.00;;;31.10;73.30;;;;;;4918607;29;20226;-77
2021/06/20 16:24:37;;;;;;;0.00;0.00;;;31.20;74.50;;;;;;4921125;29;20235;-77
2021/06/20 16:27:07;;;;;;;0.00;0.00;;;31.20;72.30;;;;;;4920081;29;20227;-78
2021/06/20 16:29:35;;;;;;;0.00;0.00;;;31.20;70.70;;;;;;4937364;29;20205;-77
2021/06/20 16:32:05;;;;;;;0.00;0.00;;;31.20;69.50;;;;;;4928016;29;20209;-76
2021/06/20 16:34:34;;;;;;;0.00;0.00;;;31.20;70.60;;;;;;4934778;29;20209;-77
2021/06/20 16:37:02;;;;;;;0.00;0.00;;;31.20;70.40;;;;;;4917024;29;20222;-77
2021/06/20 16:39:30;;;;;;;0.00;0.00;;;31.20;70.60;;;;;;4917094;29;20541;-76
2021/06/20 16:41:57;;;;;;;0.00;0.00;;;31.20;71.70;;;;;;4914736;29;20208;-77
2021/06/20 16:44:27;;;;;;;0.00;0.00;;;31.30;71.30;;;;;;4893134;29;20191;-77
2021/06/20 16:46:54;;;;;;;0.00;0.00;;;31.30;71.80;;;;;;4892876;29;20287;-80
2021/06/20 16:49:22;;;;;;;0.00;0.00;;;31.20;69.70;;;;;;4916710;29;20245;-77
2021/06/20 16:51:50;;;;;;;0.00;0.00;;;31.30;72.50;;;;;;4917075;29;20206;-74
2021/06/20 16:54:19;;;;;;;0.00;0.00;;;31.30;77.50;;;;;;4909353;29;20206;-74
2021/06/20 16:56:48;;;;;;;0.00;0.00;;;31.20;77.60;;;;;;4911026;29;20254;-75
2021/06/20 16:59:15;;;;;;;0.00;0.00;;;31.10;76.20;;;;;;4912668;29;20627;-74
2021/06/20 17:01:45;;;;;;;0.05;0.05;;;31.10;78.40;;;;;;4913281;29;20755;-75
2021/06/20 17:04:13;;;;;;;0.00;0.00;;;;;;;;;;4914200;29;20202;-77
2021/06/20 17:06:41;;;;;;;0.00;0.00;;;;;;;;;;4915325;29;20257;-77
2021/06/20 17:09:09;;;;;;;0.00;0.00;;;30.80;68.70;;;;;;4915251;29;20549;-75
2021/06/20 17:11:37;;;;;;;0.00;0.00;;;30.90;69.70;;;;;;4916212;29;20253;-75
2021/06/20 17:14:06;;;;;;;0.03;0.03;;;30.80;69.30;;;;;;4915892;29;20278;-75
2021/06/20 17:16:34;;;;;;;0.00;0.00;;;30.90;69.90;;;;;;4915682;29;20230;-76
2021/06/20 17:19:03;;;;;;;0.00;0.00;;;30.90;70.00;;;;;;4916059;29;20289;-75
2021/06/20 17:21:31;;;;;;;0.10;0.10;;;30.80;69.80;;;;;;4916716;29;20262;-75
2021/06/20 17:23:59;;;;;;;0.00;0.00;;;30.70;69.80;;;;;;4915781;29;20613;-75
2021/06/20 17:26:27;;;;;;;0.00;0.00;;;30.70;69.90;;;;;;4915517;29;20274;-75
2021/06/20 17:28:55;;;;;;;0.00;0.00;;;30.70;69.90;;;;;;4915801;29;20688;-76
2021/06/20 17:31:23;;;;;;;0.00;0.00;;;30.80;69.70;;;;;;4915493;29;20214;-76
2021/06/20 17:33:51;;;;;;;0.00;0.00;;;30.90;70.10;;;;;;4916152;29;20286;-75
2021/06/20 17:36:20;;;;;;;0.00;0.00;;;31.00;70.40;;;;;;4915774;29;20249;-75
2021/06/20 17:38:48;;;;;;;0.00;0.00;;;30.90;69.40;;;;;;4915721;29;20258;-75
2021/06/20 17:41:16;;;;;;;0.00;0.00;;;30.80;70.00;;;;;;4915642;29;20210;-75
2021/06/20 17:43:44;;;;;;;0.00;0.00;;;30.80;70.40;;;;;;4915491;29;20624;-75
2021/06/20 17:46:12;;;;;;;0.00;0.00;;;30.70;70.60;;;;;;4918795;29;20290;-75
2021/06/20 17:48:41;;;;;;;0.00;0.00;;;30.60;71.20;;;;;;4919359;29;20206;-74
2021/06/20 17:51:11;;;;;;;0.00;0.00;;;30.40;70.70;;;;;;4919872;29;20220;-75
2021/06/20 17:53:40;;;;;;;0.00;0.00;;;30.40;71.40;;;;;;4919645;29;20211;-75
2021/06/20 17:56:08;;;;;;;0.10;0.10;;;30.30;72.60;;;;;;4919048;29;20222;-75
2021/06/20 17:58:36;;;;;;;0.00;0.00;;;30.20;72.90;;;;;;4919293;29;20203;-75
2021/06/20 18:01:04;;;;;;;0.00;0.00;;;30.10;73.70;;;;;;4919313;29;20260;-74
2021/06/20 18:03:33;;;;;;;0.00;0.00;;;30.10;73.50;;;;;;4887467;29;20207;-75
2021/06/20 18:06:01;;;;;;;0.00;0.00;;;30.10;74.80;;;;;;4897688;29;20309;-75
2021/06/20 18:08:32;;;;;;;0.00;0.00;;;30.20;74.40;;;;;;4888966;29;20684;-75
2021/06/20 18:11:01;;;;;;;0.10;0.10;;;30.20;77.40;;;;;;4908946;29;20210;-75
2021/06/20 18:13:31;;;;;;;0.00;0.00;;;30.20;78.30;;;;;;4919107;29;20653;-75
2021/06/20 18:15:59;;;;;;;0.00;0.00;;;30.10;75.60;;;;;;4918777;29;20231;-75
2021/06/20 18:18:27;;;;;;;0.00;0.00;;;;;;;;;;4919188;29;20257;-75
2021/06/20 18:20:55;;;;;;;0.10;0.10;;;30.10;77.00;;;;;;4918974;29;20744;-76